sensor_id;sensor_type;location;lat;lon;timestamp;temperature;humidity
51637;DHT22;37713;53.254;6.460;2023-02-08T00:01:25;-2.60;99.90
51637;DHT22;37713;53.254;6.460;2023-02-08T00:03:51;-2.60;99.90
51637;DHT22;37713;53.254;6.460;2023-02-08T00:06:17;-2.60;99.90
51637;DHT22;37713;53.254;6.460;2023-02-08T00:08:43;-2.60;99.90
51637;DHT22;37713;53.254;6.460;2023-02-08T00:11:10;-2.60;99.90
51637;DHT22;37713;53.254;6.460;2023-02-08T00:13:37;-2.60;99.90
51637;DHT22;37713;53.254;6.460;2023-02-08T00:16:04;-2.60;99.90
51637;DHT22;37713;53.254;6.460;2023-02-08T00:18:30;-2.60;99.90
51637;DHT22;37713;53.254;6.460;2023-02-08T00:20:56;-2.60;99.90
51637;DHT22;37713;53.254;6.460;2023-02-08T00:23:23;-2.60;99.90
51637;DHT22;37713;53.254;6.460;2023-02-08T00:25:49;-2.60;99.90
51637;DHT22;37713;53.254;6.460;2023-02-08T00:28:19;-2.30;99.90
51637;DHT22;37713;53.254;6.460;2023-02-08T00:30:45;-2.20;99.90
51637;DHT22;37713;53.254;6.460;2023-02-08T00:33:11;-2.60;99.90
51637;DHT22;37713;53.254;6.460;2023-02-08T00:35:37;-2.60;99.90
51637;DHT22;37713;53.254;6.460;2023-02-08T00:38:03;-2.70;99.90
51637;DHT22;37713;53.254;6.460;2023-02-08T00:40:28;-2.60;99.90
51637;DHT22;37713;53.254;6.460;2023-02-08T00:42:54;-2.60;99.90
51637;DHT22;37713;53.254;6.460;2023-02-08T00:45:20;-2.70;99.90
51637;DHT22;37713;53.254;6.460;2023-02-08T00:47:46;-2.70;99.90
51637;DHT22;37713;53.254;6.460;2023-02-08T00:50:12;-2.80;99.90
51637;DHT22;37713;53.254;6.460;2023-02-08T00:52:38;-2.70;99.90
51637;DHT22;37713;53.254;6.460;2023-02-08T00:55:05;-2.70;99.90
51637;DHT22;37713;53.254;6.460;2023-02-08T00:57:31;-2.70;99.90
51637;DHT22;37713;53.254;6.460;2023-02-08T00:59:57;-2.60;99.90
51637;DHT22;37713;53.254;6.460;2023-02-08T01:02:23;-2.80;99.90
51637;DHT22;37713;53.254;6.460;2023-02-08T01:04:49;-2.80;99.90
51637;DHT22;37713;53.254;6.460;2023-02-08T01:07:15;-2.80;99.90
51637;DHT22;37713;53.254;6.460;2023-02-08T01:09:41;-2.80;99.90
51637;DHT22;37713;53.254;6.460;2023-02-08T01:12:07;-2.90;99.90
51637;DHT22;37713;53.254;6.460;2023-02-08T01:14:32;-2.80;99.90
51637;DHT22;37713;53.254;6.460;2023-02-08T01:16:58;-2.80;99.90
51637;DHT22;37713;53.254;6.460;2023-02-08T01:19:24;-2.80;99.90
51637;DHT22;37713;53.254;6.460;2023-02-08T01:21:50;-2.90;99.90
51637;DHT22;37713;53.254;6.460;2023-02-08T01:24:16;-2.90;99.90
51637;DHT22;37713;53.254;6.460;2023-02-08T01:26:42;-2.90;99.90
51637;DHT22;37713;53.254;6.460;2023-02-08T01:29:08;-2.90;99.90
51637;DHT22;37713;53.254;6.460;2023-02-08T01:31:36;-2.90;99.90
51637;DHT22;37713;53.254;6.460;2023-02-08T01:34:04;-3.00;99.90
51637;DHT22;37713;53.254;6.460;2023-02-08T01:36:30;-3.00;99.90
51637;DHT22;37713;53.254;6.460;2023-02-08T01:38:57;-3.00;99.90
51637;DHT22;37713;53.254;6.460;2023-02-08T01:41:35;-3.00;99.90
51637;DHT22;37713;53.254;6.460;2023-02-08T01:46:46;-3.00;99.90
51637;DHT22;37713;53.254;6.460;2023-02-08T01:49:26;-3.00;99.90
51637;DHT22;37713;53.254;6.460;2023-02-08T01:52:18;-3.00;99.90
51637;DHT22;37713;53.254;6.460;2023-02-08T01:54:52;-3.00;99.90
51637;DHT22;37713;53.254;6.460;2023-02-08T01:57:21;-3.00;99.90
51637;DHT22;37713;53.254;6.460;2023-02-08T01:59:54;-3.00;99.90
51637;DHT22;37713;53.254;6.460;2023-02-08T02:02:22;-2.90;99.90
51637;DHT22;37713;53.254;6.460;2023-02-08T02:04:49;-3.00;99.90
51637;DHT22;37713;53.254;6.460;2023-02-08T02:07:17;-2.90;99.90
51637;DHT22;37713;53.254;6.460;2023-02-08T02:09:49;-2.90;99.90
51637;DHT22;37713;53.254;6.460;2023-02-08T02:12:16;-2.90;99.90
51637;DHT22;37713;53.254;6.460;2023-02-08T02:14:42;-2.90;99.90
51637;DHT22;37713;53.254;6.460;2023-02-08T02:17:13;-2.90;99.90
51637;DHT22;37713;53.254;6.460;2023-02-08T02:23:07;-2.80;99.90
51637;DHT22;37713;53.254;6.460;2023-02-08T02:36:56;-2.90;99.90
51637;DHT22;37713;53.254;6.460;2023-02-08T02:39:40;-2.90;99.90
51637;DHT22;37713;53.254;6.460;2023-02-08T02:48:04;-2.90;99.90
51637;DHT22;37713;53.254;6.460;2023-02-08T02:50:43;-2.90;99.90
51637;DHT22;37713;53.254;6.460;2023-02-08T02:55:48;-2.90;99.90
51637;DHT22;37713;53.254;6.460;2023-02-08T02:58:18;-2.90;99.90
51637;DHT22;37713;53.254;6.460;2023-02-08T03:00:54;-2.90;99.90
51637;DHT22;37713;53.254;6.460;2023-02-08T03:03:24;-3.00;99.90
51637;DHT22;37713;53.254;6.460;2023-02-08T03:05:53;-3.00;99.90
51637;DHT22;37713;53.254;6.460;2023-02-08T03:08:46;-3.00;99.90
51637;DHT22;37713;53.254;6.460;2023-02-08T03:11:34;-3.00;99.90
51637;DHT22;37713;53.254;6.460;2023-02-08T03:19:49;-3.00;99.90
51637;DHT22;37713;53.254;6.460;2023-02-08T03:25:07;-3.00;99.90
51637;DHT22;37713;53.254;6.460;2023-02-08T03:27:39;-3.10;99.90
51637;DHT22;37713;53.254;6.460;2023-02-08T03:30:26;-3.10;99.90
51637;DHT22;37713;53.254;6.460;2023-02-08T03:33:04;-3.00;99.90
51637;DHT22;37713;53.254;6.460;2023-02-08T03:35:41;-2.40;99.90
51637;DHT22;37713;53.254;6.460;2023-02-08T03:38:14;-3.00;99.90
51637;DHT22;37713;53.254;6.460;2023-02-08T03:40:45;-3.00;99.90
51637;DHT22;37713;53.254;6.460;2023-02-08T03:45:56;-3.00;99.90
51637;DHT22;37713;53.254;6.460;2023-02-08T03:48:24;-3.00;99.90
51637;DHT22;37713;53.254;6.460;2023-02-08T03:50:52;-3.10;99.90
51637;DHT22;37713;53.254;6.460;2023-02-08T03:53:21;-3.10;99.90
51637;DHT22;37713;53.254;6.460;2023-02-08T03:55:52;-3.10;99.90
51637;DHT22;37713;53.254;6.460;2023-02-08T03:58:44;-3.10;99.90
51637;DHT22;37713;53.254;6.460;2023-02-08T04:01:35;-3.10;99.90
51637;DHT22;37713;53.254;6.460;2023-02-08T04:04:02;-3.10;99.90
51637;DHT22;37713;53.254;6.460;2023-02-08T04:06:29;-3.10;99.90
51637;DHT22;37713;53.254;6.460;2023-02-08T04:08:54;-3.10;99.90
51637;DHT22;37713;53.254;6.460;2023-02-08T04:11:21;-3.10;99.90
51637;DHT22;37713;53.254;6.460;2023-02-08T04:13:46;-3.10;99.90
51637;DHT22;37713;53.254;6.460;2023-02-08T04:16:12;-3.10;99.90
51637;DHT22;37713;53.254;6.460;2023-02-08T04:18:39;-3.10;99.90
51637;DHT22;37713;53.254;6.460;2023-02-08T04:21:05;-3.10;99.90
51637;DHT22;37713;53.254;6.460;2023-02-08T04:23:34;-2.60;99.90
51637;DHT22;37713;53.254;6.460;2023-02-08T04:25:59;-3.20;99.90
51637;DHT22;37713;53.254;6.460;2023-02-08T04:28:25;-3.20;99.90
51637;DHT22;37713;53.254;6.460;2023-02-08T04:30:54;-3.20;99.90
51637;DHT22;37713;53.254;6.460;2023-02-08T04:33:21;-3.30;99.90
51637;DHT22;37713;53.254;6.460;2023-02-08T04:35:47;-3.30;99.90
51637;DHT22;37713;53.254;6.460;2023-02-08T04:38:13;-3.40;99.90
51637;DHT22;37713;53.254;6.460;2023-02-08T04:40:38;-3.30;99.90
51637;DHT22;37713;53.254;6.460;2023-02-08T04:43:04;-3.40;99.90
51637;DHT22;37713;53.254;6.460;2023-02-08T04:45:30;-3.40;99.90
51637;DHT22;37713;53.254;6.460;2023-02-08T04:47:59;-3.40;99.90
51637;DHT22;37713;53.254;6.460;2023-02-08T04:50:25;-3.40;99.90
51637;DHT22;37713;53.254;6.460;2023-02-08T04:52:51;-3.50;99.90
51637;DHT22;37713;53.254;6.460;2023-02-08T04:55:17;-3.50;99.90
51637;DHT22;37713;53.254;6.460;2023-02-08T04:57:43;-3.00;99.90
51637;DHT22;37713;53.254;6.460;2023-02-08T05:00:09;-3.50;99.90
51637;DHT22;37713;53.254;6.460;2023-02-08T05:02:35;-3.40;99.90
51637;DHT22;37713;53.254;6.460;2023-02-08T05:05:01;-2.90;99.90
51637;DHT22;37713;53.254;6.460;2023-02-08T05:07:27;-3.40;99.90
51637;DHT22;37713;53.254;6.460;2023-02-08T05:09:52;-3.40;99.90
51637;DHT22;37713;53.254;6.460;2023-02-08T05:12:18;-3.40;99.90
51637;DHT22;37713;53.254;6.460;2023-02-08T05:14:44;-3.40;99.90
51637;DHT22;37713;53.254;6.460;2023-02-08T05:17:10;-3.20;99.90
51637;DHT22;37713;53.254;6.460;2023-02-08T05:19:35;-3.50;99.90
51637;DHT22;37713;53.254;6.460;2023-02-08T05:22:01;-3.50;99.90
51637;DHT22;37713;53.254;6.460;2023-02-08T05:24:27;-3.50;99.90
51637;DHT22;37713;53.254;6.460;2023-02-08T05:26:53;-3.50;99.90
51637;DHT22;37713;53.254;6.460;2023-02-08T05:29:19;-3.40;99.90
51637;DHT22;37713;53.254;6.460;2023-02-08T05:31:44;-3.50;99.90
51637;DHT22;37713;53.254;6.460;2023-02-08T05:34:10;-3.50;99.90
51637;DHT22;37713;53.254;6.460;2023-02-08T05:36:37;-3.50;99.90
51637;DHT22;37713;53.254;6.460;2023-02-08T05:39:03;-3.50;99.90
51637;DHT22;37713;53.254;6.460;2023-02-08T05:41:29;-3.50;99.90
51637;DHT22;37713;53.254;6.460;2023-02-08T05:43:55;-3.60;99.90
51637;DHT22;37713;53.254;6.460;2023-02-08T05:46:21;-3.50;99.90
51637;DHT22;37713;53.254;6.460;2023-02-08T05:48:48;-3.50;99.90
51637;DHT22;37713;53.254;6.460;2023-02-08T05:51:14;-3.50;99.90
51637;DHT22;37713;53.254;6.460;2023-02-08T05:53:40;-3.50;99.90
51637;DHT22;37713;53.254;6.460;2023-02-08T05:56:06;-3.50;99.90
51637;DHT22;37713;53.254;6.460;2023-02-08T05:58:32;-3.40;99.90
51637;DHT22;37713;53.254;6.460;2023-02-08T06:00:58;-3.50;99.90
51637;DHT22;37713;53.254;6.460;2023-02-08T06:03:24;-3.40;99.90
51637;DHT22;37713;53.254;6.460;2023-02-08T06:05:50;-3.40;99.90
51637;DHT22;37713;53.254;6.460;2023-02-08T06:08:16;-3.50;99.90
51637;DHT22;37713;53.254;6.460;2023-02-08T06:10:41;-3.40;99.90
51637;DHT22;37713;53.254;6.460;2023-02-08T06:13:07;-3.40;99.90
51637;DHT22;37713;53.254;6.460;2023-02-08T06:15:33;-3.40;99.90
51637;DHT22;37713;53.254;6.460;2023-02-08T06:17:59;-3.40;99.90
51637;DHT22;37713;53.254;6.460;2023-02-08T06:20:25;-3.50;99.90
51637;DHT22;37713;53.254;6.460;2023-02-08T06:22:50;-3.40;99.90
51637;DHT22;37713;53.254;6.460;2023-02-08T06:25:16;-3.40;99.90
51637;DHT22;37713;53.254;6.460;2023-02-08T06:27:42;-3.50;99.90
51637;DHT22;37713;53.254;6.460;2023-02-08T06:30:08;-3.40;99.90
51637;DHT22;37713;53.254;6.460;2023-02-08T06:32:34;-3.50;99.90
51637;DHT22;37713;53.254;6.460;2023-02-08T06:35:00;-3.50;99.90
51637;DHT22;37713;53.254;6.460;2023-02-08T06:37:26;-3.50;99.90
51637;DHT22;37713;53.254;6.460;2023-02-08T06:39:52;-3.60;99.90
51637;DHT22;37713;53.254;6.460;2023-02-08T06:42:17;-3.60;99.90
51637;DHT22;37713;53.254;6.460;2023-02-08T06:44:43;-3.60;99.90
51637;DHT22;37713;53.254;6.460;2023-02-08T06:47:09;-3.60;99.90
51637;DHT22;37713;53.254;6.460;2023-02-08T06:49:35;-3.60;99.90
51637;DHT22;37713;53.254;6.460;2023-02-08T06:52:00;-3.50;99.90
51637;DHT22;37713;53.254;6.460;2023-02-08T06:54:26;-3.60;99.90
51637;DHT22;37713;53.254;6.460;2023-02-08T06:56:52;-3.50;99.90
51637;DHT22;37713;53.254;6.460;2023-02-08T06:59:18;-3.60;99.90
51637;DHT22;37713;53.254;6.460;2023-02-08T07:01:43;-3.50;99.90
51637;DHT22;37713;53.254;6.460;2023-02-08T07:04:09;-3.50;99.90
51637;DHT22;37713;53.254;6.460;2023-02-08T07:06:35;-3.40;99.90
51637;DHT22;37713;53.254;6.460;2023-02-08T07:09:01;-3.50;99.90
51637;DHT22;37713;53.254;6.460;2023-02-08T07:11:28;-3.40;99.90
51637;DHT22;37713;53.254;6.460;2023-02-08T07:13:54;-3.40;99.90
51637;DHT22;37713;53.254;6.460;2023-02-08T07:16:20;-3.40;99.90
51637;DHT22;37713;53.254;6.460;2023-02-08T07:18:46;-3.00;99.90
51637;DHT22;37713;53.254;6.460;2023-02-08T07:21:12;-3.40;99.90
51637;DHT22;37713;53.254;6.460;2023-02-08T07:23:38;-3.40;99.90
51637;DHT22;37713;53.254;6.460;2023-02-08T07:26:07;-3.30;99.90
51637;DHT22;37713;53.254;6.460;2023-02-08T07:28:33;-3.30;99.90
51637;DHT22;37713;53.254;6.460;2023-02-08T07:31:13;-3.30;99.90
51637;DHT22;37713;53.254;6.460;2023-02-08T07:33:40;-3.30;99.90
51637;DHT22;37713;53.254;6.460;2023-02-08T07:36:06;-2.80;99.90
51637;DHT22;37713;53.254;6.460;2023-02-08T07:38:33;-3.20;99.90
51637;DHT22;37713;53.254;6.460;2023-02-08T07:41:04;-3.20;99.90
51637;DHT22;37713;53.254;6.460;2023-02-08T07:43:31;-3.20;99.90
51637;DHT22;37713;53.254;6.460;2023-02-08T07:45:57;-3.20;99.90
51637;DHT22;37713;53.254;6.460;2023-02-08T07:48:24;-3.10;99.90
51637;DHT22;37713;53.254;6.460;2023-02-08T07:50:49;-3.00;99.90
51637;DHT22;37713;53.254;6.460;2023-02-08T07:53:15;-3.00;99.90
51637;DHT22;37713;53.254;6.460;2023-02-08T07:55:43;-2.90;99.90
51637;DHT22;37713;53.254;6.460;2023-02-08T07:58:09;-2.80;99.90
51637;DHT22;37713;53.254;6.460;2023-02-08T08:00:34;-2.80;99.90
51637;DHT22;37713;53.254;6.460;2023-02-08T08:03:00;-2.80;99.90
51637;DHT22;37713;53.254;6.460;2023-02-08T08:05:26;-2.70;99.90
51637;DHT22;37713;53.254;6.460;2023-02-08T08:07:52;-2.60;99.90
51637;DHT22;37713;53.254;6.460;2023-02-08T08:10:17;-2.60;99.90
51637;DHT22;37713;53.254;6.460;2023-02-08T08:12:43;-2.60;99.90
51637;DHT22;37713;53.254;6.460;2023-02-08T08:15:09;-2.50;99.90
51637;DHT22;37713;53.254;6.460;2023-02-08T08:17:35;-2.40;99.90
51637;DHT22;37713;53.254;6.460;2023-02-08T08:20:01;-2.40;99.90
51637;DHT22;37713;53.254;6.460;2023-02-08T08:22:27;-2.30;99.90
51637;DHT22;37713;53.254;6.460;2023-02-08T08:24:52;-2.30;99.90
51637;DHT22;37713;53.254;6.460;2023-02-08T08:27:19;-2.20;99.90
51637;DHT22;37713;53.254;6.460;2023-02-08T08:29:45;-2.20;99.90
51637;DHT22;37713;53.254;6.460;2023-02-08T08:32:10;-1.80;99.90
51637;DHT22;37713;53.254;6.460;2023-02-08T08:34:36;-2.10;99.90
51637;DHT22;37713;53.254;6.460;2023-02-08T08:37:02;-2.00;99.90
51637;DHT22;37713;53.254;6.460;2023-02-08T08:39:28;-2.00;99.90
51637;DHT22;37713;53.254;6.460;2023-02-08T08:41:58;-1.90;99.90
51637;DHT22;37713;53.254;6.460;2023-02-08T08:44:25;-1.90;99.90
51637;DHT22;37713;53.254;6.460;2023-02-08T08:46:54;-1.80;99.90
51637;DHT22;37713;53.254;6.460;2023-02-08T08:49:21;-1.70;99.90
51637;DHT22;37713;53.254;6.460;2023-02-08T08:51:47;-1.70;99.90
51637;DHT22;37713;53.254;6.460;2023-02-08T08:54:13;-1.60;99.90
51637;DHT22;37713;53.254;6.460;2023-02-08T08:56:39;-1.60;99.90
51637;DHT22;37713;53.254;6.460;2023-02-08T08:59:05;-1.10;99.90
51637;DHT22;37713;53.254;6.460;2023-02-08T09:01:30;-1.40;99.90
51637;DHT22;37713;53.254;6.460;2023-02-08T09:03:56;-1.30;99.90
51637;DHT22;37713;53.254;6.460;2023-02-08T09:06:22;-1.30;99.90
51637;DHT22;37713;53.254;6.460;2023-02-08T09:08:48;-1.20;99.90
51637;DHT22;37713;53.254;6.460;2023-02-08T09:11:14;-1.10;99.90
51637;DHT22;37713;53.254;6.460;2023-02-08T09:13:40;-1.10;99.90
51637;DHT22;37713;53.254;6.460;2023-02-08T09:16:08;-1.00;99.90
51637;DHT22;37713;53.254;6.460;2023-02-08T09:18:34;-0.90;99.90
51637;DHT22;37713;53.254;6.460;2023-02-08T09:21:09;-0.90;99.90
51637;DHT22;37713;53.254;6.460;2023-02-08T09:23:35;-0.90;99.90
51637;DHT22;37713;53.254;6.460;2023-02-08T09:26:02;-0.80;99.90
51637;DHT22;37713;53.254;6.460;2023-02-08T09:28:29;-0.70;99.90
51637;DHT22;37713;53.254;6.460;2023-02-08T09:30:54;-0.70;99.90
51637;DHT22;37713;53.254;6.460;2023-02-08T09:33:20;-0.60;99.90
51637;DHT22;37713;53.254;6.460;2023-02-08T09:35:46;-0.60;99.90
51637;DHT22;37713;53.254;6.460;2023-02-08T09:38:12;-0.50;99.90
51637;DHT22;37713;53.254;6.460;2023-02-08T09:41:00;-0.50;99.90
51637;DHT22;37713;53.254;6.460;2023-02-08T09:46:14;-0.40;99.90
51637;DHT22;37713;53.254;6.460;2023-02-08T09:48:41;-0.40;99.90
51637;DHT22;37713;53.254;6.460;2023-02-08T09:51:32;0.00;99.90
51637;DHT22;37713;53.254;6.460;2023-02-08T09:54:07;-0.30;99.90
51637;DHT22;37713;53.254;6.460;2023-02-08T09:56:40;-0.20;99.90
51637;DHT22;37713;53.254;6.460;2023-02-08T09:59:25;-0.10;99.90
51637;DHT22;37713;53.254;6.460;2023-02-08T10:01:58;0.00;99.90
51637;DHT22;37713;53.254;6.460;2023-02-08T10:04:35;0.10;99.90
51637;DHT22;37713;53.254;6.460;2023-02-08T10:07:02;0.20;99.90
51637;DHT22;37713;53.254;6.460;2023-02-08T10:09:28;0.10;99.90
51637;DHT22;37713;53.254;6.460;2023-02-08T10:12:11;0.30;99.90
51637;DHT22;37713;53.254;6.460;2023-02-08T10:33:41;1.10;99.90
51637;DHT22;37713;53.254;6.460;2023-02-08T10:36:18;1.10;99.90
51637;DHT22;37713;53.254;6.460;2023-02-08T10:38:46;1.10;99.90
51637;DHT22;37713;53.254;6.460;2023-02-08T10:41:23;1.20;99.90
51637;DHT22;37713;53.254;6.460;2023-02-08T10:44:31;1.20;99.90
51637;DHT22;37713;53.254;6.460;2023-02-08T10:50:03;1.40;99.90
51637;DHT22;37713;53.254;6.460;2023-02-08T10:52:31;1.50;99.90
51637;DHT22;37713;53.254;6.460;2023-02-08T10:54:57;1.60;99.90
51637;DHT22;37713;53.254;6.460;2023-02-08T10:57:27;1.70;99.90
51637;DHT22;37713;53.254;6.460;2023-02-08T11:00:04;1.70;99.90
51637;DHT22;37713;53.254;6.460;2023-02-08T11:02:32;1.80;99.90
51637;DHT22;37713;53.254;6.460;2023-02-08T11:05:40;1.80;99.90
51637;DHT22;37713;53.254;6.460;2023-02-08T11:08:25;2.00;99.90
51637;DHT22;37713;53.254;6.460;2023-02-08T11:11:06;2.00;99.90
51637;DHT22;37713;53.254;6.460;2023-02-08T11:13:44;2.10;99.90
51637;DHT22;37713;53.254;6.460;2023-02-08T11:16:19;2.20;99.90
51637;DHT22;37713;53.254;6.460;2023-02-08T11:18:53;2.20;99.90
51637;DHT22;37713;53.254;6.460;2023-02-08T11:21:28;2.30;99.90
51637;DHT22;37713;53.254;6.460;2023-02-08T11:24:00;2.40;99.90
51637;DHT22;37713;53.254;6.460;2023-02-08T11:29:14;2.60;99.90
51637;DHT22;37713;53.254;6.460;2023-02-08T11:32:02;2.70;99.90
51637;DHT22;37713;53.254;6.460;2023-02-08T11:37:00;2.90;99.90
51637;DHT22;37713;53.254;6.460;2023-02-08T11:39:39;2.90;99.90
51637;DHT22;37713;53.254;6.460;2023-02-08T11:42:23;3.10;99.90
51637;DHT22;37713;53.254;6.460;2023-02-08T11:44:50;3.10;99.90
51637;DHT22;37713;53.254;6.460;2023-02-08T11:47:26;3.20;99.90
51637;DHT22;37713;53.254;6.460;2023-02-08T11:49:55;3.30;99.90
51637;DHT22;37713;53.254;6.460;2023-02-08T11:52:36;3.40;99.90
51637;DHT22;37713;53.254;6.460;2023-02-08T11:57:53;3.60;99.90
51637;DHT22;37713;53.254;6.460;2023-02-08T12:00:29;3.70;99.90
51637;DHT22;37713;53.254;6.460;2023-02-08T12:03:45;3.70;99.90
51637;DHT22;37713;53.254;6.460;2023-02-08T12:11:46;3.90;99.90
51637;DHT22;37713;53.254;6.460;2023-02-08T12:25:35;4.30;99.90
51637;DHT22;37713;53.254;6.460;2023-02-08T12:33:38;4.30;99.90
51637;DHT22;37713;53.254;6.460;2023-02-08T12:38:54;4.50;99.90
51637;DHT22;37713;53.254;6.460;2023-02-08T12:44:49;4.50;99.90
51637;DHT22;37713;53.254;6.460;2023-02-08T12:50:28;4.50;99.90
51637;DHT22;37713;53.254;6.460;2023-02-08T12:53:04;4.70;99.90
51637;DHT22;37713;53.254;6.460;2023-02-08T12:55:37;4.60;99.90
51637;DHT22;37713;53.254;6.460;2023-02-08T12:58:25;4.70;99.90
51637;DHT22;37713;53.254;6.460;2023-02-08T13:00:57;4.70;99.90
51637;DHT22;37713;53.254;6.460;2023-02-08T13:03:52;4.80;99.90
51637;DHT22;37713;53.254;6.460;2023-02-08T13:06:38;4.80;99.90
51637;DHT22;37713;53.254;6.460;2023-02-08T13:09:42;4.80;99.90
51637;DHT22;37713;53.254;6.460;2023-02-08T13:12:21;4.90;99.90
51637;DHT22;37713;53.254;6.460;2023-02-08T13:15:19;4.80;99.90
51637;DHT22;37713;53.254;6.460;2023-02-08T13:17:53;4.90;99.90
51637;DHT22;37713;53.254;6.460;2023-02-08T13:20:36;4.90;99.90
51637;DHT22;37713;53.254;6.460;2023-02-08T13:23:09;4.90;99.90
51637;DHT22;37713;53.254;6.460;2023-02-08T13:25:36;5.00;99.90
51637;DHT22;37713;53.254;6.460;2023-02-08T13:28:06;4.90;99.90
51637;DHT22;37713;53.254;6.460;2023-02-08T13:30:35;5.00;99.90
51637;DHT22;37713;53.254;6.460;2023-02-08T13:33:15;4.90;99.90
51637;DHT22;37713;53.254;6.460;2023-02-08T13:35:41;4.90;99.90
51637;DHT22;37713;53.254;6.460;2023-02-08T13:38:26;4.90;99.90
51637;DHT22;37713;53.254;6.460;2023-02-08T13:41:22;4.90;99.90
51637;DHT22;37713;53.254;6.460;2023-02-08T13:46:19;4.90;99.90
51637;DHT22;37713;53.254;6.460;2023-02-08T13:59:37;4.80;99.90
51637;DHT22;37713;53.254;6.460;2023-02-08T14:04:39;4.80;99.90
51637;DHT22;37713;53.254;6.460;2023-02-08T14:17:47;4.70;99.90
51637;DHT22;37713;53.254;6.460;2023-02-08T14:20:33;4.60;99.90
51637;DHT22;37713;53.254;6.460;2023-02-08T14:23:22;4.60;99.90
51637;DHT22;37713;53.254;6.460;2023-02-08T14:25:50;4.60;99.90
51637;DHT22;37713;53.254;6.460;2023-02-08T14:30:51;4.50;99.90
51637;DHT22;37713;53.254;6.460;2023-02-08T14:33:22;4.40;99.90
51637;DHT22;37713;53.254;6.460;2023-02-08T14:35:54;4.40;99.90
51637;DHT22;37713;53.254;6.460;2023-02-08T14:40:52;4.40;99.90
51637;DHT22;37713;53.254;6.460;2023-02-08T14:45:45;4.30;99.90
51637;DHT22;37713;53.254;6.460;2023-02-08T14:48:37;4.20;99.90
51637;DHT22;37713;53.254;6.460;2023-02-08T14:53:56;4.20;99.90
51637;DHT22;37713;53.254;6.460;2023-02-08T14:56:30;4.20;99.90
51637;DHT22;37713;53.254;6.460;2023-02-08T14:59:11;4.20;99.90
51637;DHT22;37713;53.254;6.460;2023-02-08T15:01:45;4.20;99.90
51637;DHT22;37713;53.254;6.460;2023-02-08T15:04:14;4.20;99.90
51637;DHT22;37713;53.254;6.460;2023-02-08T15:09:28;4.10;99.90
51637;DHT22;37713;53.254;6.460;2023-02-08T15:14:34;4.10;99.90
51637;DHT22;37713;53.254;6.460;2023-02-08T15:17:00;4.10;99.90
51637;DHT22;37713;53.254;6.460;2023-02-08T15:19:36;4.00;99.90
51637;DHT22;37713;53.254;6.460;2023-02-08T15:22:36;3.90;99.90
51637;DHT22;37713;53.254;6.460;2023-02-08T15:25:25;3.90;99.90
51637;DHT22;37713;53.254;6.460;2023-02-08T15:27:55;3.80;99.90
51637;DHT22;37713;53.254;6.460;2023-02-08T15:30:23;3.80;99.90
51637;DHT22;37713;53.254;6.460;2023-02-08T15:32:49;3.70;99.90
51637;DHT22;37713;53.254;6.460;2023-02-08T15:35:18;3.60;99.90
51637;DHT22;37713;53.254;6.460;2023-02-08T15:37:45;3.60;99.90
51637;DHT22;37713;53.254;6.460;2023-02-08T15:40:41;3.50;99.90
51637;DHT22;37713;53.254;6.460;2023-02-08T15:45:33;3.40;99.90
51637;DHT22;37713;53.254;6.460;2023-02-08T15:47:59;3.30;99.90
51637;DHT22;37713;53.254;6.460;2023-02-08T15:50:27;3.20;99.90
51637;DHT22;37713;53.254;6.460;2023-02-08T15:53:04;3.10;99.90
51637;DHT22;37713;53.254;6.460;2023-02-08T15:55:38;3.10;99.90
51637;DHT22;37713;53.254;6.460;2023-02-08T15:58:36;3.00;99.90
51637;DHT22;37713;53.254;6.460;2023-02-08T16:01:04;2.80;99.90
51637;DHT22;37713;53.254;6.460;2023-02-08T16:03:32;2.80;99.90
51637;DHT22;37713;53.254;6.460;2023-02-08T16:06:04;2.70;99.90
51637;DHT22;37713;53.254;6.460;2023-02-08T16:08:36;2.60;99.90
51637;DHT22;37713;53.254;6.460;2023-02-08T16:11:16;2.50;99.90
51637;DHT22;37713;53.254;6.460;2023-02-08T16:13:47;2.50;99.90
51637;DHT22;37713;53.254;6.460;2023-02-08T16:16:24;2.40;99.90
51637;DHT22;37713;53.254;6.460;2023-02-08T16:19:24;2.30;99.90
51637;DHT22;37713;53.254;6.460;2023-02-08T16:21:50;2.30;99.90
51637;DHT22;37713;53.254;6.460;2023-02-08T16:29:37;2.10;99.90
51637;DHT22;37713;53.254;6.460;2023-02-08T16:32:25;2.00;99.90
51637;DHT22;37713;53.254;6.460;2023-02-08T16:34:51;2.00;99.90
51637;DHT22;37713;53.254;6.460;2023-02-08T16:37:32;1.90;99.90
51637;DHT22;37713;53.254;6.460;2023-02-08T16:40:05;1.80;99.90
51637;DHT22;37713;53.254;6.460;2023-02-08T16:50:18;1.50;99.90
51637;DHT22;37713;53.254;6.460;2023-02-08T16:52:47;1.40;99.90
51637;DHT22;37713;53.254;6.460;2023-02-08T16:55:17;1.40;99.90
51637;DHT22;37713;53.254;6.460;2023-02-08T16:57:46;1.30;99.90
51637;DHT22;37713;53.254;6.460;2023-02-08T17:00:16;1.20;99.90
51637;DHT22;37713;53.254;6.460;2023-02-08T17:02:42;1.20;99.90
51637;DHT22;37713;53.254;6.460;2023-02-08T17:05:07;1.20;99.90
51637;DHT22;37713;53.254;6.460;2023-02-08T17:07:33;1.10;99.90
51637;DHT22;37713;53.254;6.460;2023-02-08T17:10:01;1.00;99.90
51637;DHT22;37713;53.254;6.460;2023-02-08T17:12:27;1.00;99.90
51637;DHT22;37713;53.254;6.460;2023-02-08T17:14:53;1.00;99.90
51637;DHT22;37713;53.254;6.460;2023-02-08T17:17:19;0.90;99.90
51637;DHT22;37713;53.254;6.460;2023-02-08T17:19:45;0.90;99.90
51637;DHT22;37713;53.254;6.460;2023-02-08T17:22:11;0.80;99.90
51637;DHT22;37713;53.254;6.460;2023-02-08T17:24:37;0.90;99.90
51637;DHT22;37713;53.254;6.460;2023-02-08T17:27:03;0.80;99.90
51637;DHT22;37713;53.254;6.460;2023-02-08T17:29:29;0.80;99.90
51637;DHT22;37713;53.254;6.460;2023-02-08T17:31:55;0.70;99.90
51637;DHT22;37713;53.254;6.460;2023-02-08T17:34:20;0.70;99.90
51637;DHT22;37713;53.254;6.460;2023-02-08T17:36:46;0.60;99.90
51637;DHT22;37713;53.254;6.460;2023-02-08T17:39:12;0.50;99.90
51637;DHT22;37713;53.254;6.460;2023-02-08T17:41:40;0.50;99.90
51637;DHT22;37713;53.254;6.460;2023-02-08T17:44:05;0.40;99.90
51637;DHT22;37713;53.254;6.460;2023-02-08T17:46:32;0.40;99.90
51637;DHT22;37713;53.254;6.460;2023-02-08T17:48:58;0.30;99.90
51637;DHT22;37713;53.254;6.460;2023-02-08T17:51:26;0.30;99.90
51637;DHT22;37713;53.254;6.460;2023-02-08T17:53:52;0.20;99.90
51637;DHT22;37713;53.254;6.460;2023-02-08T17:56:20;0.10;99.90
51637;DHT22;37713;53.254;6.460;2023-02-08T17:58:47;0.10;99.90
51637;DHT22;37713;53.254;6.460;2023-02-08T18:01:16;0.00;99.90
51637;DHT22;37713;53.254;6.460;2023-02-08T18:03:43;-0.10;99.90
51637;DHT22;37713;53.254;6.460;2023-02-08T18:06:10;0.30;99.90
51637;DHT22;37713;53.254;6.460;2023-02-08T18:08:36;-0.20;99.90
51637;DHT22;37713;53.254;6.460;2023-02-08T18:11:07;-0.20;99.90
51637;DHT22;37713;53.254;6.460;2023-02-08T18:13:35;-0.20;99.90
51637;DHT22;37713;53.254;6.460;2023-02-08T18:16:10;-0.30;99.90
51637;DHT22;37713;53.254;6.460;2023-02-08T18:18:36;-0.30;99.90
51637;DHT22;37713;53.254;6.460;2023-02-08T18:21:07;-0.30;99.90
51637;DHT22;37713;53.254;6.460;2023-02-08T18:23:33;-0.30;99.90
51637;DHT22;37713;53.254;6.460;2023-02-08T18:26:04;-0.40;99.90
51637;DHT22;37713;53.254;6.460;2023-02-08T18:28:30;-0.40;99.90
51637;DHT22;37713;53.254;6.460;2023-02-08T18:31:05;-0.70;99.90
51637;DHT22;37713;53.254;6.460;2023-02-08T18:33:32;-0.50;99.90
51637;DHT22;37713;53.254;6.460;2023-02-08T18:35:58;-0.60;99.90